createdAt,value
2022-12-23T00:01:30.362Z,1.65
2022-12-23T00:04:30.120Z,1.65
2022-12-23T00:07:30.144Z,1.15
2022-12-23T00:10:30.026Z,1
2022-12-23T00:13:30.189Z,2.6
2022-12-23T00:16:30.473Z,1.05
2022-12-23T00:19:30.128Z,1.25
2022-12-23T00:22:30.097Z,1.75
2022-12-23T00:25:30.004Z,1.3
2022-12-23T00:28:30.118Z,1.7
2022-12-23T00:31:30.243Z,2.15
2022-12-23T00:34:30.154Z,1.25
2022-12-23T00:37:30.149Z,1.9
2022-12-23T00:40:30.138Z,1.4
2022-12-23T00:43:30.030Z,0.4
2022-12-23T00:46:30.360Z,1.35
2022-12-23T00:49:30.140Z,1.1
2022-12-23T00:52:30.171Z,1.05
2022-12-23T00:55:30.087Z,1.1
2022-12-23T00:58:30.119Z,1.55
2022-12-23T01:01:30.325Z,0.95
2022-12-23T01:04:30.144Z,1
2022-12-23T01:07:30.151Z,1.15
2022-12-23T01:10:30.176Z,1.15
2022-12-23T01:13:30.159Z,1.7
2022-12-23T01:16:30.259Z,1.35
2022-12-23T01:19:30.214Z,0.95
2022-12-23T01:22:30.139Z,1.15
2022-12-23T01:25:30.179Z,2
2022-12-23T01:28:30.106Z,1.65
2022-12-23T01:31:30.384Z,1.4
2022-12-23T01:34:37.275Z,2.15
2022-12-23T01:37:30.155Z,2.7
2022-12-23T01:40:30.227Z,1.4
2022-12-23T01:43:30.107Z,1.4
2022-12-23T01:46:30.307Z,3.5
2022-12-23T01:49:30.288Z,2.35
2022-12-23T01:52:30.071Z,3.35
2022-12-23T01:55:30.191Z,1.35
2022-12-23T01:58:30.064Z,1.4
2022-12-23T02:01:30.587Z,2.3
2022-12-23T02:04:30.141Z,4.3
2022-12-23T02:07:30.155Z,2.35
2022-12-23T02:10:30.154Z,1.85
2022-12-23T02:13:30.098Z,3.35
2022-12-23T02:16:30.391Z,2.65
2022-12-23T02:19:30.104Z,1.9
2022-12-23T02:22:30.249Z,3.55
2022-12-23T02:25:30.168Z,2.1
2022-12-23T02:28:30.155Z,3
2022-12-23T02:31:30.348Z,2.65
2022-12-23T02:34:30.191Z,3
2022-12-23T02:37:30.211Z,2.45
2022-12-23T02:40:30.211Z,3.7
2022-12-23T02:43:30.128Z,3.1
2022-12-23T02:46:30.228Z,4.3
2022-12-23T02:49:30.142Z,2.6
2022-12-23T02:52:30.096Z,1.9
2022-12-23T02:55:30.267Z,2.65
2022-12-23T02:58:30.107Z,1.4
2022-12-23T03:01:30.391Z,2.8
2022-12-23T03:04:30.160Z,3.3
2022-12-23T03:07:30.205Z,3.25
2022-12-23T03:10:30.246Z,2.85
2022-12-23T03:13:30.152Z,3
2022-12-23T03:16:30.378Z,3.5
2022-12-23T03:19:30.273Z,2.2
2022-12-23T03:22:30.164Z,3.25
2022-12-23T03:25:30.145Z,4.75
2022-12-23T03:28:30.192Z,2.65
2022-12-23T03:31:30.496Z,2.1
2022-12-23T03:34:30.219Z,2.25
2022-12-23T03:37:30.231Z,2.65
2022-12-23T03:40:30.329Z,3.4
2022-12-23T03:43:30.333Z,2.4
2022-12-23T03:46:30.399Z,2.45
2022-12-23T03:49:30.287Z,4.85
2022-12-23T03:52:30.181Z,3.95
2022-12-23T03:55:30.221Z,4.7
2022-12-23T03:58:30.247Z,2.65
2022-12-23T04:01:30.434Z,3.2
2022-12-23T04:04:31.967Z,2.95
2022-12-23T04:07:30.335Z,3.15
2022-12-23T04:10:30.313Z,2.95
2022-12-23T04:13:30.292Z,3.25
2022-12-23T04:16:30.549Z,2.45
2022-12-23T04:19:30.344Z,4.9
2022-12-23T04:22:30.397Z,3.05
2022-12-23T04:25:30.303Z,3.15
2022-12-23T04:28:30.320Z,2.35
2022-12-23T04:31:30.637Z,1.95
2022-12-23T04:34:30.295Z,2.55
2022-12-23T04:37:30.285Z,2.6
2022-12-23T04:40:30.572Z,2.15
2022-12-23T04:43:30.216Z,3.3
2022-12-23T04:46:30.407Z,2.6
2022-12-23T04:49:30.250Z,3.35
2022-12-23T04:52:30.424Z,2.85
2022-12-23T04:55:30.325Z,3.2
2022-12-23T04:58:30.249Z,2.5
2022-12-23T05:01:30.611Z,3.05
2022-12-23T05:04:30.352Z,2.15
2022-12-23T05:07:30.254Z,2.85
2022-12-23T05:10:30.349Z,2.7
2022-12-23T05:13:30.328Z,2.4
2022-12-23T05:16:30.414Z,2.8
2022-12-23T05:19:30.355Z,2.75
2022-12-23T05:22:30.347Z,2.55
2022-12-23T05:25:30.277Z,2.4
2022-12-23T05:28:30.261Z,2.5
2022-12-23T05:31:30.500Z,3.75
2022-12-23T05:34:30.467Z,2.65
2022-12-23T05:37:30.473Z,3.2
2022-12-23T05:40:34.685Z,2.6
2022-12-23T05:43:30.375Z,2.7
2022-12-23T05:46:30.385Z,2.4
2022-12-23T05:49:30.410Z,1.55
2022-12-23T05:52:30.332Z,1.8
2022-12-23T05:55:33.606Z,2.4
2022-12-23T05:58:30.298Z,1.9
2022-12-23T06:01:30.443Z,1.7
2022-12-23T06:04:30.500Z,2.95
2022-12-23T06:07:30.477Z,1.8
2022-12-23T06:10:30.460Z,1.45
2022-12-23T06:13:30.432Z,1.3
2022-12-23T06:16:30.479Z,2.2
2022-12-23T06:19:30.394Z,1.6
2022-12-23T06:22:30.506Z,2.45
2022-12-23T06:25:30.297Z,1.65
2022-12-23T06:28:30.434Z,1.45
2022-12-23T06:31:30.479Z,2.5
2022-12-23T06:34:30.364Z,2.05
2022-12-23T06:37:30.335Z,2
2022-12-23T06:40:30.402Z,1.75
2022-12-23T06:43:30.349Z,1.65
2022-12-23T06:46:30.593Z,1.6
2022-12-23T06:49:30.405Z,1.9
2022-12-23T06:52:30.414Z,2.3
2022-12-23T06:55:30.410Z,3.15
2022-12-23T06:58:30.490Z,3.3
2022-12-23T07:01:30.875Z,2.85
2022-12-23T07:04:30.374Z,2.55
2022-12-23T07:07:30.404Z,2.8
2022-12-23T07:10:30.670Z,2.7
2022-12-23T07:13:30.564Z,2.2
2022-12-23T07:16:30.557Z,2.35
2022-12-23T07:19:30.383Z,2.45
2022-12-23T07:22:30.433Z,1.45
2022-12-23T07:25:30.364Z,2.8
2022-12-23T07:28:30.465Z,2
2022-12-23T07:31:30.607Z,1.5
2022-12-23T07:34:30.425Z,2.65
2022-12-23T07:37:30.527Z,1.7
2022-12-23T07:40:30.592Z,1.75
2022-12-23T07:43:30.453Z,1.55
2022-12-23T07:46:30.673Z,1.95
2022-12-23T07:49:30.438Z,2.3
2022-12-23T07:52:30.530Z,1.65
2022-12-23T07:55:30.503Z,2.1
2022-12-23T07:58:30.393Z,1.7
2022-12-23T08:01:30.809Z,1.6
2022-12-23T08:04:30.611Z,1.5
2022-12-23T08:07:30.461Z,1.7
2022-12-23T08:10:30.413Z,1.9
2022-12-23T08:13:30.510Z,1.25
2022-12-23T08:16:30.571Z,1.45
2022-12-23T08:19:30.544Z,1.85
2022-12-23T08:22:30.532Z,1.6
2022-12-23T08:25:30.533Z,1.25
2022-12-23T08:28:30.497Z,1.2
2022-12-23T08:31:30.756Z,1.55
2022-12-23T08:34:30.721Z,1.9
2022-12-23T08:37:30.439Z,2.1
2022-12-23T08:40:30.598Z,2
2022-12-23T08:43:36.069Z,1.3
2022-12-23T08:46:30.555Z,1.45
2022-12-23T08:49:30.518Z,1.4
2022-12-23T08:52:30.552Z,1.6
2022-12-23T08:55:30.601Z,1.35
2022-12-23T08:58:30.539Z,1.85
2022-12-23T09:01:31.007Z,1.95
2022-12-23T09:04:30.473Z,1.35
2022-12-23T09:07:30.533Z,1.35
2022-12-23T09:10:30.542Z,1.9
2022-12-23T09:13:36.142Z,1.7
2022-12-23T09:16:30.925Z,1.25
2022-12-23T09:19:30.568Z,0.8
2022-12-23T09:22:30.487Z,0.7
2022-12-23T09:25:30.679Z,0.6
2022-12-23T09:28:30.596Z,1.9
2022-12-23T09:31:37.552Z,1.55
2022-12-23T09:34:30.649Z,0.4
2022-12-23T09:37:30.479Z,1.75
2022-12-23T09:40:30.491Z,2
2022-12-23T09:43:30.483Z,1.7
2022-12-23T09:46:30.651Z,1.5
2022-12-23T09:49:30.636Z,2.4
2022-12-23T09:52:30.516Z,1.7
2022-12-23T09:55:30.632Z,2.55
2022-12-23T09:58:30.556Z,2.65
2022-12-23T10:01:30.860Z,2.4
2022-12-23T10:04:30.858Z,1.9
2022-12-23T10:07:30.828Z,1.55
2022-12-23T10:10:30.512Z,2.8
2022-12-23T10:13:30.675Z,2.5
2022-12-23T10:16:30.633Z,2.2
2022-12-23T10:19:30.543Z,1.8
2022-12-23T10:22:30.690Z,1.6
2022-12-23T10:25:30.666Z,1.65
2022-12-23T10:28:31.389Z,1
2022-12-23T10:31:40.562Z,2.75
2022-12-23T10:34:38.525Z,1.65
2022-12-23T10:37:30.649Z,1.7
2022-12-23T10:40:30.712Z,1.3
2022-12-23T10:43:30.632Z,1.3
2022-12-23T10:46:30.753Z,1.75
2022-12-23T10:49:30.618Z,1.75
2022-12-23T10:52:30.613Z,2.5
2022-12-23T10:55:34.765Z,1.35
2022-12-23T10:58:30.559Z,1.4
2022-12-23T11:01:31.123Z,1.65
2022-12-23T11:04:30.775Z,1.2
2022-12-23T11:07:44.882Z,1.15
2022-12-23T11:10:30.640Z,1.25
2022-12-23T11:13:33.787Z,0.65
2022-12-23T11:16:30.855Z,0.95
2022-12-23T11:19:30.678Z,0.95
2022-12-23T11:22:30.661Z,0.35
2022-12-23T11:25:30.734Z,0.5
2022-12-23T11:28:30.637Z,0.35
2022-12-23T11:31:30.817Z,0.5
2022-12-23T11:34:30.705Z,0.45
2022-12-23T11:37:30.664Z,0.7
2022-12-23T11:40:30.770Z,0.6
2022-12-23T11:43:30.744Z,0.6
2022-12-23T11:46:30.816Z,0.65
2022-12-23T11:49:30.675Z,0.65
2022-12-23T11:52:30.799Z,0.35
2022-12-23T11:55:30.746Z,0.6
2022-12-23T11:58:30.681Z,1.1
2022-12-23T12:01:30.649Z,1.25
2022-12-23T12:04:30.690Z,0.5
2022-12-23T12:07:30.673Z,0.3
2022-12-23T12:10:30.718Z,0.85
2022-12-23T12:13:30.733Z,0.65
2022-12-23T12:16:31.030Z,0.4
2022-12-23T12:19:30.736Z,0.5
2022-12-23T12:22:30.822Z,0.45
2022-12-23T12:25:35.095Z,0.4
2022-12-23T12:28:30.808Z,0.5
2022-12-23T12:31:30.786Z,0.25
2022-12-23T12:34:30.718Z,0.35
2022-12-23T12:37:30.764Z,0.35
2022-12-23T12:40:30.727Z,0.45
2022-12-23T12:43:30.629Z,0.55
2022-12-23T12:46:30.919Z,0.9
2022-12-23T12:49:30.677Z,0.75
2022-12-23T12:52:30.822Z,0.6
2022-12-23T12:55:30.743Z,0.9
2022-12-23T12:58:30.766Z,0.25
2022-12-23T13:01:30.851Z,0.95
2022-12-23T13:04:33.512Z,1.75
2022-12-23T13:07:30.699Z,0.95
2022-12-23T13:10:30.813Z,1.05
2022-12-23T13:13:30.805Z,0.75
2022-12-23T13:16:30.856Z,0.35
2022-12-23T13:19:30.692Z,0.7
2022-12-23T13:22:30.765Z,1.45
2022-12-23T13:25:30.677Z,0.85
2022-12-23T13:28:30.729Z,0.95
2022-12-23T13:31:30.885Z,1.4
2022-12-23T13:34:30.836Z,1.25
2022-12-23T13:37:30.858Z,1.4
2022-12-23T13:40:30.760Z,1.2
2022-12-23T13:43:30.816Z,0.75
2022-12-23T13:46:30.961Z,1.55
2022-12-23T13:49:30.812Z,0.65
2022-12-23T13:52:31.097Z,1.4
2022-12-23T13:55:30.726Z,1.05
2022-12-23T13:58:30.785Z,1.9
2022-12-23T14:01:31.060Z,0.5
2022-12-23T14:04:30.849Z,0.55
2022-12-23T14:07:30.874Z,0.9
2022-12-23T14:10:30.872Z,1.25
2022-12-23T14:13:33.233Z,1.1
2022-12-23T14:16:31.089Z,1
2022-12-23T14:19:30.746Z,0.7
2022-12-23T14:22:30.742Z,0.55
2022-12-23T14:25:30.871Z,0.45
2022-12-23T14:28:30.779Z,1.6
2022-12-23T14:31:31.029Z,1.3
2022-12-23T14:34:30.816Z,1.3
2022-12-23T14:37:30.912Z,1.45
2022-12-23T14:40:30.903Z,0.6
2022-12-23T14:43:30.837Z,1.85
2022-12-23T14:46:30.919Z,1.35
2022-12-23T14:49:39.362Z,1.2
2022-12-23T14:52:30.844Z,1.5
2022-12-23T14:55:32.914Z,1.5
2022-12-23T14:58:30.968Z,1.1
2022-12-23T15:01:31.119Z,1
2022-12-23T15:04:30.863Z,1.25
2022-12-23T15:07:30.963Z,0.9
2022-12-23T15:10:30.908Z,1.6
2022-12-23T15:13:30.870Z,0.9
2022-12-23T15:16:30.977Z,1.05
2022-12-23T15:19:30.886Z,1.65
2022-12-23T15:22:33.600Z,1.6
2022-12-23T15:25:30.893Z,1.1
2022-12-23T15:28:30.835Z,0.9
2022-12-23T15:31:31.155Z,1.25
2022-12-23T15:34:30.972Z,1.05
2022-12-23T15:37:30.976Z,1.4
2022-12-23T15:40:30.824Z,1.2
2022-12-23T15:43:30.904Z,1.05
2022-12-23T15:46:31.775Z,0.95
2022-12-23T15:49:30.991Z,1.65
2022-12-23T15:52:30.998Z,2.9
2022-12-23T15:55:30.861Z,2.5
2022-12-23T15:58:30.825Z,2.05
2022-12-23T16:01:30.975Z,2.75
2022-12-23T16:04:31.060Z,2
2022-12-23T16:07:30.909Z,2.8
2022-12-23T16:10:30.976Z,2.25
2022-12-23T16:13:30.938Z,2.8
2022-12-23T16:16:31.130Z,2.65
2022-12-23T16:19:30.873Z,3.4
2022-12-23T16:22:30.952Z,3.5
2022-12-23T16:25:31.280Z,2.7
2022-12-23T16:28:31.020Z,2.65
2022-12-23T16:31:31.121Z,3.6
2022-12-23T16:34:31.017Z,2.1
2022-12-23T16:37:30.856Z,2.55
2022-12-23T16:40:30.964Z,3
2022-12-23T16:43:31.002Z,1.65
2022-12-23T16:46:31.037Z,5.3
2022-12-23T16:49:36.017Z,2.25
2022-12-23T16:52:31.088Z,2.4
2022-12-23T16:55:30.938Z,2.2
2022-12-23T16:58:31.022Z,1.55
2022-12-23T17:01:31.174Z,3.55
2022-12-23T17:04:31.265Z,2.95
2022-12-23T17:07:30.958Z,3.95
2022-12-23T17:10:30.974Z,2.2
2022-12-23T17:13:30.980Z,2.65
2022-12-23T17:16:31.072Z,2.15
2022-12-23T17:19:31.069Z,2.75
2022-12-23T17:22:31.112Z,2.8
2022-12-23T17:25:31.101Z,1.8
2022-12-23T17:28:31.034Z,3.65
2022-12-23T17:31:31.062Z,1.5
2022-12-23T17:34:31.085Z,2.15
2022-12-23T17:37:31.069Z,2.35
2022-12-23T17:40:30.920Z,3.45
2022-12-23T17:43:31.036Z,2.05
2022-12-23T17:46:31.058Z,2.75
2022-12-23T17:49:31.110Z,3.05
2022-12-23T17:52:30.969Z,2.35
2022-12-23T17:55:31.105Z,2
2022-12-23T17:58:31.084Z,3.5
2022-12-23T18:01:31.341Z,3.45
2022-12-23T18:04:30.904Z,1.8
2022-12-23T18:07:30.957Z,2.45
2022-12-23T18:10:31.121Z,1.95
2022-12-23T18:13:30.954Z,1.6
2022-12-23T18:16:31.177Z,2.9
2022-12-23T18:19:30.976Z,2.2
2022-12-23T18:22:31.089Z,2.9
2022-12-23T18:25:31.114Z,3.05
2022-12-23T18:28:31.056Z,2.4
2022-12-23T18:31:31.191Z,1.95
2022-12-23T18:34:31.091Z,3.3
2022-12-23T18:37:31.112Z,3.5
2022-12-23T18:40:33.936Z,3.05
2022-12-23T18:43:31.093Z,3.55
2022-12-23T18:46:31.313Z,3.7
2022-12-23T18:49:31.194Z,2.85
2022-12-23T18:52:31.169Z,3.55
2022-12-23T18:55:31.041Z,3.15
2022-12-23T18:58:31.150Z,2.5
2022-12-23T19:01:31.301Z,2.1
2022-12-23T19:04:31.068Z,2.9
2022-12-23T19:07:31.112Z,2.25
2022-12-23T19:10:31.236Z,3.1
2022-12-23T19:13:31.073Z,3.15
2022-12-23T19:16:31.198Z,3.35
2022-12-23T19:19:31.083Z,3.05
2022-12-23T19:22:31.123Z,2.75
2022-12-23T19:25:31.112Z,3.3
2022-12-23T19:28:31.110Z,2.8
2022-12-23T19:31:31.332Z,3.1
2022-12-23T19:34:31.127Z,2.85
2022-12-23T19:37:34.592Z,3.55
2022-12-23T19:40:31.563Z,2.55
2022-12-23T19:43:31.133Z,3.2
2022-12-23T19:46:31.229Z,1.95
2022-12-23T19:49:31.124Z,3
2022-12-23T19:52:31.157Z,3.5
2022-12-23T19:55:31.149Z,3.25
2022-12-23T19:58:31.165Z,3.45
2022-12-23T20:01:31.279Z,2.4
2022-12-23T20:04:31.118Z,2.2
2022-12-23T20:07:31.144Z,2.5
2022-12-23T20:10:31.095Z,2.75
2022-12-23T20:13:31.185Z,2.4
2022-12-23T20:16:31.293Z,1.6
2022-12-23T20:19:31.133Z,2.7
2022-12-23T20:22:31.080Z,2.25
2022-12-23T20:25:31.175Z,2.75
2022-12-23T20:28:31.139Z,2.9
2022-12-23T20:31:31.282Z,2.65
2022-12-23T20:34:39.426Z,3.5
2022-12-23T20:37:31.233Z,2.5
2022-12-23T20:40:31.115Z,2.15
2022-12-23T20:43:31.167Z,1.95
2022-12-23T20:46:31.199Z,3.45
2022-12-23T20:49:31.144Z,3.35
2022-12-23T20:52:32.227Z,1.65
2022-12-23T20:55:31.108Z,2.8
2022-12-23T20:58:31.174Z,2.35
2022-12-23T21:01:31.290Z,3.15
2022-12-23T21:04:31.087Z,3.8
2022-12-23T21:07:31.121Z,3.45
2022-12-23T21:10:31.079Z,2.2
2022-12-23T21:13:31.173Z,2.75
2022-12-23T21:16:31.347Z,1.8
2022-12-23T21:19:31.193Z,2.95
2022-12-23T21:22:31.212Z,2.95
2022-12-23T21:25:31.180Z,2.9
2022-12-23T21:28:31.270Z,2.05
2022-12-23T21:31:31.178Z,1.5
2022-12-23T21:34:31.278Z,2.45
2022-12-23T21:37:31.298Z,2.65
2022-12-23T21:40:31.207Z,1.9
2022-12-23T21:43:31.217Z,3.3
2022-12-23T21:46:31.257Z,3.1
2022-12-23T21:49:31.199Z,3.75
2022-12-23T21:52:31.258Z,2.7
2022-12-23T21:55:31.267Z,2.8
2022-12-23T21:58:31.249Z,3.3
2022-12-23T22:01:31.340Z,3.25
2022-12-23T22:04:31.140Z,3.35
2022-12-23T22:07:31.155Z,3.05
2022-12-23T22:10:31.251Z,2.75
2022-12-23T22:13:31.270Z,3.9
2022-12-23T22:16:31.317Z,2.85
2022-12-23T22:19:31.161Z,2.2
2022-12-23T22:22:31.225Z,2.3
2022-12-23T22:25:31.276Z,2.95
2022-12-23T22:28:31.214Z,2.3
2022-12-23T22:31:31.441Z,3.15
2022-12-23T22:34:31.328Z,2.65
2022-12-23T22:37:31.259Z,2.55
2022-12-23T22:40:33.602Z,2.75
2022-12-23T22:43:31.242Z,3.45
2022-12-23T22:46:31.571Z,4
2022-12-23T22:49:31.280Z,3.55
2022-12-23T22:52:31.235Z,3.05
2022-12-23T22:55:31.307Z,4.45
2022-12-23T22:58:31.349Z,3.05
2022-12-23T23:01:31.363Z,2.75
2022-12-23T23:04:31.270Z,3.2
2022-12-23T23:07:31.236Z,3.8
2022-12-23T23:10:31.306Z,4.6
2022-12-23T23:13:31.227Z,2.95
2022-12-23T23:16:31.378Z,3.9
2022-12-23T23:19:31.275Z,3
2022-12-23T23:22:31.372Z,3.55
2022-12-23T23:25:31.313Z,2.5
2022-12-23T23:28:31.281Z,2.25
2022-12-23T23:31:44.343Z,2.1
2022-12-23T23:34:31.384Z,2.4
2022-12-23T23:37:31.293Z,1.85
2022-12-23T23:40:31.249Z,1.95
2022-12-23T23:43:31.348Z,1.75
2022-12-23T23:46:31.402Z,2.2
2022-12-23T23:49:31.242Z,1.5
2022-12-23T23:52:31.414Z,1
2022-12-23T23:55:31.308Z,0.4
2022-12-23T23:58:31.305Z,0.65
